sensor_id;sensor_type;location;lat;lon;timestamp;P1;durP1;ratioP1;P2;durP2;ratioP2
30173;SDS011;16985;50.814;8.530;2023-06-14T00:01:13;12.48;;;4.80;;
30173;SDS011;16985;50.814;8.530;2023-06-14T00:03:39;7.25;;;4.93;;
30173;SDS011;16985;50.814;8.530;2023-06-14T00:06:05;7.28;;;4.35;;
30173;SDS011;16985;50.814;8.530;2023-06-14T00:08:31;7.30;;;4.55;;
30173;SDS011;16985;50.814;8.530;2023-06-14T00:10:57;7.03;;;4.88;;
30173;SDS011;16985;50.814;8.530;2023-06-14T00:13:23;7.28;;;5.03;;
30173;SDS011;16985;50.814;8.530;2023-06-14T00:15:48;8.82;;;5.35;;
30173;SDS011;16985;50.814;8.530;2023-06-14T00:18:14;6.25;;;4.97;;
30173;SDS011;16985;50.814;8.530;2023-06-14T00:20:41;6.75;;;4.88;;
30173;SDS011;16985;50.814;8.530;2023-06-14T00:23:08;6.80;;;5.33;;
30173;SDS011;16985;50.814;8.530;2023-06-14T00:25:50;6.93;;;4.90;;
30173;SDS011;16985;50.814;8.530;2023-06-14T00:28:16;5.88;;;4.57;;
30173;SDS011;16985;50.814;8.530;2023-06-14T00:30:42;5.30;;;4.35;;
30173;SDS011;16985;50.814;8.530;2023-06-14T00:33:11;6.72;;;4.55;;
30173;SDS011;16985;50.814;8.530;2023-06-14T00:35:37;6.25;;;4.68;;
30173;SDS011;16985;50.814;8.530;2023-06-14T00:38:03;8.52;;;4.07;;
30173;SDS011;16985;50.814;8.530;2023-06-14T00:40:29;9.93;;;4.18;;
30173;SDS011;16985;50.814;8.530;2023-06-14T00:42:55;11.82;;;4.57;;
30173;SDS011;16985;50.814;8.530;2023-06-14T00:45:21;7.00;;;4.22;;
30173;SDS011;16985;50.814;8.530;2023-06-14T00:47:47;6.70;;;4.68;;
30173;SDS011;16985;50.814;8.530;2023-06-14T00:50:16;10.45;;;4.50;;
30173;SDS011;16985;50.814;8.530;2023-06-14T00:52:58;5.82;;;4.38;;
30173;SDS011;16985;50.814;8.530;2023-06-14T00:55:28;5.22;;;3.97;;
30173;SDS011;16985;50.814;8.530;2023-06-14T00:57:54;6.13;;;4.55;;
30173;SDS011;16985;50.814;8.530;2023-06-14T01:00:21;6.35;;;4.35;;
30173;SDS011;16985;50.814;8.530;2023-06-14T01:03:01;9.27;;;4.75;;
30173;SDS011;16985;50.814;8.530;2023-06-14T01:05:28;5.32;;;3.85;;
30173;SDS011;16985;50.814;8.530;2023-06-14T01:11:05;6.93;;;4.37;;
30173;SDS011;16985;50.814;8.530;2023-06-14T01:13:38;6.65;;;4.70;;
30173;SDS011;16985;50.814;8.530;2023-06-14T01:16:08;6.65;;;4.68;;
30173;SDS011;16985;50.814;8.530;2023-06-14T01:18:35;6.55;;;4.25;;
30173;SDS011;16985;50.814;8.530;2023-06-14T01:21:01;6.00;;;4.20;;
30173;SDS011;16985;50.814;8.530;2023-06-14T01:23:30;6.75;;;4.50;;
30173;SDS011;16985;50.814;8.530;2023-06-14T01:25:58;5.87;;;3.93;;
30173;SDS011;16985;50.814;8.530;2023-06-14T01:28:30;5.20;;;4.57;;
30173;SDS011;16985;50.814;8.530;2023-06-14T01:30:59;5.95;;;4.22;;
30173;SDS011;16985;50.814;8.530;2023-06-14T01:33:32;10.02;;;4.68;;
30173;SDS011;16985;50.814;8.530;2023-06-14T01:35:58;13.93;;;5.40;;
30173;SDS011;16985;50.814;8.530;2023-06-14T01:38:28;9.02;;;4.35;;
30173;SDS011;16985;50.814;8.530;2023-06-14T01:43:24;6.88;;;4.30;;
30173;SDS011;16985;50.814;8.530;2023-06-14T01:45:52;7.93;;;4.13;;
30173;SDS011;16985;50.814;8.530;2023-06-14T01:50:47;6.18;;;3.92;;
30173;SDS011;16985;50.814;8.530;2023-06-14T01:53:19;5.20;;;3.58;;
30173;SDS011;16985;50.814;8.530;2023-06-14T01:55:45;5.95;;;3.95;;
30173;SDS011;16985;50.814;8.530;2023-06-14T01:58:14;5.97;;;3.97;;
30173;SDS011;16985;50.814;8.530;2023-06-14T02:00:42;7.00;;;4.13;;
30173;SDS011;16985;50.814;8.530;2023-06-14T02:03:18;5.15;;;4.25;;
30173;SDS011;16985;50.814;8.530;2023-06-14T02:05:44;7.80;;;3.80;;
30173;SDS011;16985;50.814;8.530;2023-06-14T02:08:10;5.47;;;3.58;;
30173;SDS011;16985;50.814;8.530;2023-06-14T02:10:36;7.15;;;4.05;;
30173;SDS011;16985;50.814;8.530;2023-06-14T02:13:02;5.85;;;4.35;;
30173;SDS011;16985;50.814;8.530;2023-06-14T02:15:28;5.40;;;3.90;;
30173;SDS011;16985;50.814;8.530;2023-06-14T02:18:00;8.40;;;4.60;;
30173;SDS011;16985;50.814;8.530;2023-06-14T02:20:31;6.30;;;4.00;;
30173;SDS011;16985;50.814;8.530;2023-06-14T02:22:57;11.77;;;4.20;;
30173;SDS011;16985;50.814;8.530;2023-06-14T02:25:23;4.68;;;3.72;;
30173;SDS011;16985;50.814;8.530;2023-06-14T02:28:06;5.93;;;4.05;;
30173;SDS011;16985;50.814;8.530;2023-06-14T02:30:32;7.93;;;4.55;;
30173;SDS011;16985;50.814;8.530;2023-06-14T02:32:58;5.15;;;3.95;;
30173;SDS011;16985;50.814;8.530;2023-06-14T02:35:24;6.55;;;3.65;;
30173;SDS011;16985;50.814;8.530;2023-06-14T02:37:51;6.75;;;4.20;;
30173;SDS011;16985;50.814;8.530;2023-06-14T02:40:18;7.53;;;4.20;;
30173;SDS011;16985;50.814;8.530;2023-06-14T02:42:59;5.85;;;4.50;;
30173;SDS011;16985;50.814;8.530;2023-06-14T02:45:25;6.43;;;4.40;;
30173;SDS011;16985;50.814;8.530;2023-06-14T02:47:58;5.63;;;3.78;;
30173;SDS011;16985;50.814;8.530;2023-06-14T02:50:23;8.52;;;4.28;;
30173;SDS011;16985;50.814;8.530;2023-06-14T02:52:49;7.40;;;4.35;;
30173;SDS011;16985;50.814;8.530;2023-06-14T02:55:15;5.60;;;4.25;;
30173;SDS011;16985;50.814;8.530;2023-06-14T02:57:41;5.63;;;3.63;;
30173;SDS011;16985;50.814;8.530;2023-06-14T03:00:24;6.93;;;3.33;;
30173;SDS011;16985;50.814;8.530;2023-06-14T03:02:51;7.80;;;4.28;;
30173;SDS011;16985;50.814;8.530;2023-06-14T03:05:18;9.82;;;3.83;;
30173;SDS011;16985;50.814;8.530;2023-06-14T03:07:46;5.55;;;4.10;;
30173;SDS011;16985;50.814;8.530;2023-06-14T03:10:13;6.75;;;4.28;;
30173;SDS011;16985;50.814;8.530;2023-06-14T03:12:40;12.88;;;4.32;;
30173;SDS011;16985;50.814;8.530;2023-06-14T03:15:08;5.83;;;4.20;;
30173;SDS011;16985;50.814;8.530;2023-06-14T03:17:39;7.40;;;4.13;;
30173;SDS011;16985;50.814;8.530;2023-06-14T03:20:05;4.35;;;3.15;;
30173;SDS011;16985;50.814;8.530;2023-06-14T03:22:33;6.30;;;3.67;;
30173;SDS011;16985;50.814;8.530;2023-06-14T03:24:59;6.90;;;3.85;;
30173;SDS011;16985;50.814;8.530;2023-06-14T03:27:29;8.05;;;3.80;;
30173;SDS011;16985;50.814;8.530;2023-06-14T03:29:55;15.80;;;5.40;;
30173;SDS011;16985;50.814;8.530;2023-06-14T03:32:21;7.18;;;4.18;;
30173;SDS011;16985;50.814;8.530;2023-06-14T03:34:47;6.50;;;4.07;;
30173;SDS011;16985;50.814;8.530;2023-06-14T03:37:17;5.78;;;3.90;;
30173;SDS011;16985;50.814;8.530;2023-06-14T03:39:44;6.80;;;4.03;;
30173;SDS011;16985;50.814;8.530;2023-06-14T03:42:14;12.15;;;4.90;;
30173;SDS011;16985;50.814;8.530;2023-06-14T03:44:42;5.68;;;4.35;;
30173;SDS011;16985;50.814;8.530;2023-06-14T03:47:08;6.85;;;4.05;;
30173;SDS011;16985;50.814;8.530;2023-06-14T03:49:33;8.25;;;3.80;;
30173;SDS011;16985;50.814;8.530;2023-06-14T03:52:00;12.20;;;3.75;;
30173;SDS011;16985;50.814;8.530;2023-06-14T03:54:27;11.48;;;4.30;;
30173;SDS011;16985;50.814;8.530;2023-06-14T03:56:54;11.45;;;4.00;;
30173;SDS011;16985;50.814;8.530;2023-06-14T03:59:22;8.60;;;4.40;;
30173;SDS011;16985;50.814;8.530;2023-06-14T04:01:48;6.22;;;3.50;;
30173;SDS011;16985;50.814;8.530;2023-06-14T04:04:15;6.00;;;4.13;;
30173;SDS011;16985;50.814;8.530;2023-06-14T04:06:44;7.43;;;3.83;;
30173;SDS011;16985;50.814;8.530;2023-06-14T04:09:13;8.32;;;3.97;;
30173;SDS011;16985;50.814;8.530;2023-06-14T04:11:40;6.78;;;4.00;;
30173;SDS011;16985;50.814;8.530;2023-06-14T04:14:06;9.95;;;4.43;;
30173;SDS011;16985;50.814;8.530;2023-06-14T04:16:31;6.03;;;4.22;;
30173;SDS011;16985;50.814;8.530;2023-06-14T04:18:59;8.68;;;3.90;;
30173;SDS011;16985;50.814;8.530;2023-06-14T04:21:25;5.60;;;3.97;;
30173;SDS011;16985;50.814;8.530;2023-06-14T04:23:54;11.60;;;4.30;;
30173;SDS011;16985;50.814;8.530;2023-06-14T04:26:23;9.10;;;3.63;;
30173;SDS011;16985;50.814;8.530;2023-06-14T04:28:56;14.48;;;4.53;;
30173;SDS011;16985;50.814;8.530;2023-06-14T04:31:28;5.07;;;4.00;;
30173;SDS011;16985;50.814;8.530;2023-06-14T04:33:55;7.22;;;4.25;;
30173;SDS011;16985;50.814;8.530;2023-06-14T04:36:22;7.45;;;3.78;;
30173;SDS011;16985;50.814;8.530;2023-06-14T04:38:48;6.18;;;4.00;;
30173;SDS011;16985;50.814;8.530;2023-06-14T04:41:15;6.55;;;4.18;;
30173;SDS011;16985;50.814;8.530;2023-06-14T04:43:57;7.82;;;3.75;;
30173;SDS011;16985;50.814;8.530;2023-06-14T04:46:28;6.78;;;4.13;;
30173;SDS011;16985;50.814;8.530;2023-06-14T04:49:16;6.13;;;4.18;;
30173;SDS011;16985;50.814;8.530;2023-06-14T04:51:42;8.02;;;3.58;;
30173;SDS011;16985;50.814;8.530;2023-06-14T04:54:10;8.27;;;4.15;;
30173;SDS011;16985;50.814;8.530;2023-06-14T04:56:40;12.88;;;4.10;;
30173;SDS011;16985;50.814;8.530;2023-06-14T04:59:08;5.30;;;3.22;;
30173;SDS011;16985;50.814;8.530;2023-06-14T05:01:50;7.00;;;3.58;;
30173;SDS011;16985;50.814;8.530;2023-06-14T05:04:17;7.53;;;3.90;;
30173;SDS011;16985;50.814;8.530;2023-06-14T05:06:44;6.97;;;3.65;;
30173;SDS011;16985;50.814;8.530;2023-06-14T05:09:13;4.38;;;3.42;;
30173;SDS011;16985;50.814;8.530;2023-06-14T05:11:41;7.80;;;3.97;;
30173;SDS011;16985;50.814;8.530;2023-06-14T05:14:22;5.10;;;3.65;;
30173;SDS011;16985;50.814;8.530;2023-06-14T05:16:49;5.85;;;3.35;;
30173;SDS011;16985;50.814;8.530;2023-06-14T05:19:30;6.03;;;3.63;;
30173;SDS011;16985;50.814;8.530;2023-06-14T05:21:56;8.90;;;4.05;;
30173;SDS011;16985;50.814;8.530;2023-06-14T05:24:22;5.13;;;2.83;;
30173;SDS011;16985;50.814;8.530;2023-06-14T05:26:48;4.50;;;3.47;;
30173;SDS011;16985;50.814;8.530;2023-06-14T05:29:14;3.95;;;3.33;;
30173;SDS011;16985;50.814;8.530;2023-06-14T05:31:40;6.90;;;3.97;;
30173;SDS011;16985;50.814;8.530;2023-06-14T05:34:06;5.53;;;3.42;;
30173;SDS011;16985;50.814;8.530;2023-06-14T05:36:31;4.90;;;3.15;;
30173;SDS011;16985;50.814;8.530;2023-06-14T05:38:57;4.68;;;3.13;;
30173;SDS011;16985;50.814;8.530;2023-06-14T05:41:28;5.07;;;3.20;;
30173;SDS011;16985;50.814;8.530;2023-06-14T05:43:54;5.55;;;3.30;;
30173;SDS011;16985;50.814;8.530;2023-06-14T05:46:21;5.25;;;3.10;;
30173;SDS011;16985;50.814;8.530;2023-06-14T05:48:53;6.75;;;3.50;;
30173;SDS011;16985;50.814;8.530;2023-06-14T05:51:20;6.07;;;3.20;;
30173;SDS011;16985;50.814;8.530;2023-06-14T05:53:52;4.20;;;3.00;;
30173;SDS011;16985;50.814;8.530;2023-06-14T05:56:18;10.73;;;3.45;;
30173;SDS011;16985;50.814;8.530;2023-06-14T05:58:44;5.72;;;3.55;;
30173;SDS011;16985;50.814;8.530;2023-06-14T06:01:11;4.80;;;3.50;;
30173;SDS011;16985;50.814;8.530;2023-06-14T06:03:38;5.00;;;3.47;;
30173;SDS011;16985;50.814;8.530;2023-06-14T06:06:04;4.32;;;3.38;;
30173;SDS011;16985;50.814;8.530;2023-06-14T06:08:30;5.57;;;3.15;;
30173;SDS011;16985;50.814;8.530;2023-06-14T06:10:56;4.03;;;3.38;;
30173;SDS011;16985;50.814;8.530;2023-06-14T06:13:22;5.20;;;3.60;;
30173;SDS011;16985;50.814;8.530;2023-06-14T06:15:48;4.13;;;3.20;;
30173;SDS011;16985;50.814;8.530;2023-06-14T06:18:14;6.82;;;3.33;;
30173;SDS011;16985;50.814;8.530;2023-06-14T06:20:40;6.57;;;3.35;;
30173;SDS011;16985;50.814;8.530;2023-06-14T06:23:06;5.13;;;3.22;;
30173;SDS011;16985;50.814;8.530;2023-06-14T06:25:32;8.18;;;2.80;;
30173;SDS011;16985;50.814;8.530;2023-06-14T06:27:59;4.68;;;2.95;;
30173;SDS011;16985;50.814;8.530;2023-06-14T06:30:25;5.40;;;3.80;;
30173;SDS011;16985;50.814;8.530;2023-06-14T06:32:51;7.93;;;3.05;;
30173;SDS011;16985;50.814;8.530;2023-06-14T06:35:18;5.22;;;3.40;;
30173;SDS011;16985;50.814;8.530;2023-06-14T06:37:43;7.53;;;2.95;;
30173;SDS011;16985;50.814;8.530;2023-06-14T06:40:09;5.88;;;3.38;;
30173;SDS011;16985;50.814;8.530;2023-06-14T06:42:35;5.28;;;2.55;;
30173;SDS011;16985;50.814;8.530;2023-06-14T06:45:03;5.20;;;3.50;;
30173;SDS011;16985;50.814;8.530;2023-06-14T06:47:31;5.20;;;3.30;;
30173;SDS011;16985;50.814;8.530;2023-06-14T06:50:06;6.07;;;3.05;;
30173;SDS011;16985;50.814;8.530;2023-06-14T06:52:33;11.75;;;3.53;;
30173;SDS011;16985;50.814;8.530;2023-06-14T06:54:58;4.90;;;3.28;;
30173;SDS011;16985;50.814;8.530;2023-06-14T06:57:24;7.22;;;3.03;;
30173;SDS011;16985;50.814;8.530;2023-06-14T06:59:50;6.43;;;3.55;;
30173;SDS011;16985;50.814;8.530;2023-06-14T07:02:16;6.80;;;3.40;;
30173;SDS011;16985;50.814;8.530;2023-06-14T07:04:43;3.92;;;2.88;;
30173;SDS011;16985;50.814;8.530;2023-06-14T07:07:09;5.40;;;2.47;;
30173;SDS011;16985;50.814;8.530;2023-06-14T07:09:35;4.60;;;2.67;;
30173;SDS011;16985;50.814;8.530;2023-06-14T07:12:01;5.93;;;2.58;;
30173;SDS011;16985;50.814;8.530;2023-06-14T07:14:27;2.95;;;2.33;;
30173;SDS011;16985;50.814;8.530;2023-06-14T07:16:54;6.00;;;2.72;;
30173;SDS011;16985;50.814;8.530;2023-06-14T07:19:20;4.15;;;2.60;;
30173;SDS011;16985;50.814;8.530;2023-06-14T07:21:46;7.68;;;2.92;;
30173;SDS011;16985;50.814;8.530;2023-06-14T07:24:11;4.97;;;2.45;;
30173;SDS011;16985;50.814;8.530;2023-06-14T07:26:37;8.90;;;3.25;;
30173;SDS011;16985;50.814;8.530;2023-06-14T07:29:03;2.83;;;2.22;;
30173;SDS011;16985;50.814;8.530;2023-06-14T07:31:29;5.20;;;2.20;;
30173;SDS011;16985;50.814;8.530;2023-06-14T07:33:55;6.47;;;1.75;;
30173;SDS011;16985;50.814;8.530;2023-06-14T07:36:20;2.00;;;1.50;;
30173;SDS011;16985;50.814;8.530;2023-06-14T07:38:47;10.65;;;2.03;;
30173;SDS011;16985;50.814;8.530;2023-06-14T07:41:13;2.05;;;1.63;;
30173;SDS011;16985;50.814;8.530;2023-06-14T07:43:46;3.58;;;2.00;;
30173;SDS011;16985;50.814;8.530;2023-06-14T07:46:12;2.47;;;1.75;;
30173;SDS011;16985;50.814;8.530;2023-06-14T07:48:53;6.82;;;1.92;;
30173;SDS011;16985;50.814;8.530;2023-06-14T07:51:19;1.85;;;1.42;;
30173;SDS011;16985;50.814;8.530;2023-06-14T07:53:45;1.52;;;1.42;;
30173;SDS011;16985;50.814;8.530;2023-06-14T07:56:11;2.10;;;1.67;;
30173;SDS011;16985;50.814;8.530;2023-06-14T07:58:37;4.47;;;1.77;;
30173;SDS011;16985;50.814;8.530;2023-06-14T08:01:03;1.92;;;1.67;;
30173;SDS011;16985;50.814;8.530;2023-06-14T08:05:57;8.20;;;1.85;;
30173;SDS011;16985;50.814;8.530;2023-06-14T08:08:23;2.33;;;1.63;;
30173;SDS011;16985;50.814;8.530;2023-06-14T08:10:49;2.13;;;1.60;;
30173;SDS011;16985;50.814;8.530;2023-06-14T08:13:15;2.33;;;1.30;;
30173;SDS011;16985;50.814;8.530;2023-06-14T08:15:40;2.78;;;1.45;;
30173;SDS011;16985;50.814;8.530;2023-06-14T08:18:06;4.00;;;1.95;;
30173;SDS011;16985;50.814;8.530;2023-06-14T08:20:32;5.20;;;1.35;;
30173;SDS011;16985;50.814;8.530;2023-06-14T08:23:00;2.67;;;1.60;;
30173;SDS011;16985;50.814;8.530;2023-06-14T08:25:29;2.58;;;1.42;;
30173;SDS011;16985;50.814;8.530;2023-06-14T08:27:56;2.60;;;1.92;;
30173;SDS011;16985;50.814;8.530;2023-06-14T08:30:36;2.25;;;1.75;;
30173;SDS011;16985;50.814;8.530;2023-06-14T08:33:02;2.25;;;1.70;;
30173;SDS011;16985;50.814;8.530;2023-06-14T08:35:28;3.83;;;1.60;;
30173;SDS011;16985;50.814;8.530;2023-06-14T08:37:54;3.10;;;1.90;;
30173;SDS011;16985;50.814;8.530;2023-06-14T08:40:22;2.72;;;2.10;;
30173;SDS011;16985;50.814;8.530;2023-06-14T08:45:19;3.50;;;2.22;;
30173;SDS011;16985;50.814;8.530;2023-06-14T08:47:47;2.83;;;2.28;;
30173;SDS011;16985;50.814;8.530;2023-06-14T08:50:20;3.15;;;2.20;;
30173;SDS011;16985;50.814;8.530;2023-06-14T08:52:55;4.15;;;2.15;;
30173;SDS011;16985;50.814;8.530;2023-06-14T08:55:25;3.17;;;2.05;;
30173;SDS011;16985;50.814;8.530;2023-06-14T08:57:56;4.80;;;2.00;;
30173;SDS011;16985;50.814;8.530;2023-06-14T09:00:23;3.00;;;1.83;;
30173;SDS011;16985;50.814;8.530;2023-06-14T09:02:51;4.75;;;2.17;;
30173;SDS011;16985;50.814;8.530;2023-06-14T09:05:23;5.18;;;2.13;;
30173;SDS011;16985;50.814;8.530;2023-06-14T09:07:53;5.00;;;2.20;;
30173;SDS011;16985;50.814;8.530;2023-06-14T09:10:25;5.03;;;2.08;;
30173;SDS011;16985;50.814;8.530;2023-06-14T09:12:53;6.13;;;2.03;;
30173;SDS011;16985;50.814;8.530;2023-06-14T09:15:19;7.50;;;3.35;;
30173;SDS011;16985;50.814;8.530;2023-06-14T09:17:45;2.85;;;1.85;;
30173;SDS011;16985;50.814;8.530;2023-06-14T09:20:11;7.15;;;2.50;;
30173;SDS011;16985;50.814;8.530;2023-06-14T09:22:43;5.80;;;2.38;;
30173;SDS011;16985;50.814;8.530;2023-06-14T09:25:09;6.43;;;2.40;;
30173;SDS011;16985;50.814;8.530;2023-06-14T09:27:51;5.47;;;2.55;;
30173;SDS011;16985;50.814;8.530;2023-06-14T09:30:19;2.55;;;1.80;;
30173;SDS011;16985;50.814;8.530;2023-06-14T09:32:53;6.45;;;2.38;;
30173;SDS011;16985;50.814;8.530;2023-06-14T09:35:20;7.57;;;2.13;;
30173;SDS011;16985;50.814;8.530;2023-06-14T09:37:46;5.57;;;2.08;;
30173;SDS011;16985;50.814;8.530;2023-06-14T09:40:12;2.25;;;2.00;;
30173;SDS011;16985;50.814;8.530;2023-06-14T09:42:38;6.78;;;2.35;;
30173;SDS011;16985;50.814;8.530;2023-06-14T09:47:32;2.60;;;2.13;;
30173;SDS011;16985;50.814;8.530;2023-06-14T09:49:58;3.45;;;2.17;;
30173;SDS011;16985;50.814;8.530;2023-06-14T09:52:25;2.85;;;1.67;;
30173;SDS011;16985;50.814;8.530;2023-06-14T09:54:52;5.85;;;2.20;;
30173;SDS011;16985;50.814;8.530;2023-06-14T09:57:38;3.00;;;2.20;;
30173;SDS011;16985;50.814;8.530;2023-06-14T10:00:09;2.80;;;2.00;;
30173;SDS011;16985;50.814;8.530;2023-06-14T10:02:38;2.80;;;2.17;;
30173;SDS011;16985;50.814;8.530;2023-06-14T10:05:08;2.90;;;2.08;;
30173;SDS011;16985;50.814;8.530;2023-06-14T10:07:52;5.07;;;2.20;;
30173;SDS011;16985;50.814;8.530;2023-06-14T10:10:25;3.08;;;2.00;;
30173;SDS011;16985;50.814;8.530;2023-06-14T10:12:51;4.70;;;2.40;;
30173;SDS011;16985;50.814;8.530;2023-06-14T10:15:22;9.07;;;2.03;;
30173;SDS011;16985;50.814;8.530;2023-06-14T10:20:51;4.45;;;1.98;;
30173;SDS011;16985;50.814;8.530;2023-06-14T10:23:29;2.78;;;1.52;;
30173;SDS011;16985;50.814;8.530;2023-06-14T10:25:57;6.32;;;1.98;;
30173;SDS011;16985;50.814;8.530;2023-06-14T10:28:24;2.55;;;1.95;;
30173;SDS011;16985;50.814;8.530;2023-06-14T10:33:50;3.25;;;2.05;;
30173;SDS011;16985;50.814;8.530;2023-06-14T10:39:01;2.00;;;1.40;;
30173;SDS011;16985;50.814;8.530;2023-06-14T10:41:29;2.85;;;2.03;;
30173;SDS011;16985;50.814;8.530;2023-06-14T10:46:38;4.80;;;1.83;;
30173;SDS011;16985;50.814;8.530;2023-06-14T10:49:05;7.50;;;1.63;;
30173;SDS011;16985;50.814;8.530;2023-06-14T10:51:41;2.35;;;1.50;;
30173;SDS011;16985;50.814;8.530;2023-06-14T10:54:13;5.05;;;1.70;;
30173;SDS011;16985;50.814;8.530;2023-06-14T10:56:50;4.28;;;1.77;;
30173;SDS011;16985;50.814;8.530;2023-06-14T10:59:19;3.28;;;2.08;;
30173;SDS011;16985;50.814;8.530;2023-06-14T11:04:41;3.45;;;2.22;;
30173;SDS011;16985;50.814;8.530;2023-06-14T11:10:39;2.92;;;1.95;;
30173;SDS011;16985;50.814;8.530;2023-06-14T11:13:07;3.80;;;2.20;;
30173;SDS011;16985;50.814;8.530;2023-06-14T11:15:34;2.55;;;1.70;;
30173;SDS011;16985;50.814;8.530;2023-06-14T11:18:12;4.32;;;1.75;;
30173;SDS011;16985;50.814;8.530;2023-06-14T11:20:39;4.50;;;1.80;;
30173;SDS011;16985;50.814;8.530;2023-06-14T11:23:05;4.45;;;1.90;;
30173;SDS011;16985;50.814;8.530;2023-06-14T11:25:31;4.68;;;2.17;;
30173;SDS011;16985;50.814;8.530;2023-06-14T11:27:57;5.20;;;2.25;;
30173;SDS011;16985;50.814;8.530;2023-06-14T11:30:26;5.93;;;1.80;;
30173;SDS011;16985;50.814;8.530;2023-06-14T11:32:55;2.03;;;1.73;;
30173;SDS011;16985;50.814;8.530;2023-06-14T11:35:22;2.55;;;2.00;;
30173;SDS011;16985;50.814;8.530;2023-06-14T11:37:52;7.03;;;1.98;;
30173;SDS011;16985;50.814;8.530;2023-06-14T11:40:25;6.32;;;2.05;;
30173;SDS011;16985;50.814;8.530;2023-06-14T11:42:59;3.45;;;1.73;;
30173;SDS011;16985;50.814;8.530;2023-06-14T11:45:26;8.55;;;1.98;;
30173;SDS011;16985;50.814;8.530;2023-06-14T11:47:54;2.85;;;1.70;;
30173;SDS011;16985;50.814;8.530;2023-06-14T11:50:28;2.80;;;1.60;;
30173;SDS011;16985;50.814;8.530;2023-06-14T11:52:57;4.25;;;1.77;;
30173;SDS011;16985;50.814;8.530;2023-06-14T11:55:28;2.38;;;1.85;;
30173;SDS011;16985;50.814;8.530;2023-06-14T11:57:54;4.72;;;2.20;;
30173;SDS011;16985;50.814;8.530;2023-06-14T12:00:24;3.05;;;2.20;;
30173;SDS011;16985;50.814;8.530;2023-06-14T12:02:54;4.70;;;1.92;;
30173;SDS011;16985;50.814;8.530;2023-06-14T12:05:21;3.28;;;2.22;;
30173;SDS011;16985;50.814;8.530;2023-06-14T12:07:48;7.30;;;2.35;;
30173;SDS011;16985;50.814;8.530;2023-06-14T12:10:15;2.38;;;2.13;;
30173;SDS011;16985;50.814;8.530;2023-06-14T12:12:42;2.53;;;2.05;;
30173;SDS011;16985;50.814;8.530;2023-06-14T12:15:08;3.40;;;2.72;;
30173;SDS011;16985;50.814;8.530;2023-06-14T12:17:36;5.07;;;2.00;;
30173;SDS011;16985;50.814;8.530;2023-06-14T12:20:11;2.55;;;2.03;;
30173;SDS011;16985;50.814;8.530;2023-06-14T12:22:53;4.63;;;1.83;;
30173;SDS011;16985;50.814;8.530;2023-06-14T12:27:56;2.00;;;1.90;;
30173;SDS011;16985;50.814;8.530;2023-06-14T12:30:35;4.50;;;2.20;;
30173;SDS011;16985;50.814;8.530;2023-06-14T12:33:02;3.90;;;2.05;;
30173;SDS011;16985;50.814;8.530;2023-06-14T12:35:29;4.22;;;2.28;;
30173;SDS011;16985;50.814;8.530;2023-06-14T12:37:55;3.10;;;2.45;;
30173;SDS011;16985;50.814;8.530;2023-06-14T12:40:21;4.78;;;2.00;;
30173;SDS011;16985;50.814;8.530;2023-06-14T12:42:48;2.40;;;1.98;;
30173;SDS011;16985;50.814;8.530;2023-06-14T12:45:13;3.88;;;2.30;;
30173;SDS011;16985;50.814;8.530;2023-06-14T12:47:40;3.67;;;1.90;;
30173;SDS011;16985;50.814;8.530;2023-06-14T12:50:21;5.45;;;2.00;;
30173;SDS011;16985;50.814;8.530;2023-06-14T12:52:47;3.97;;;2.03;;
30173;SDS011;16985;50.814;8.530;2023-06-14T12:55:13;2.90;;;1.92;;
30173;SDS011;16985;50.814;8.530;2023-06-14T12:57:39;2.78;;;1.90;;
30173;SDS011;16985;50.814;8.530;2023-06-14T13:00:05;2.80;;;2.15;;
30173;SDS011;16985;50.814;8.530;2023-06-14T13:02:32;4.50;;;1.60;;
30173;SDS011;16985;50.814;8.530;2023-06-14T13:04:58;4.75;;;2.10;;
30173;SDS011;16985;50.814;8.530;2023-06-14T13:07:25;2.00;;;1.80;;
30173;SDS011;16985;50.814;8.530;2023-06-14T13:09:51;3.53;;;2.17;;
30173;SDS011;16985;50.814;8.530;2023-06-14T13:12:17;2.70;;;1.80;;
30173;SDS011;16985;50.814;8.530;2023-06-14T13:14:42;7.05;;;2.05;;
30173;SDS011;16985;50.814;8.530;2023-06-14T13:17:09;3.35;;;2.33;;
30173;SDS011;16985;50.814;8.530;2023-06-14T13:19:35;3.50;;;2.40;;
30173;SDS011;16985;50.814;8.530;2023-06-14T13:22:07;5.65;;;1.90;;
30173;SDS011;16985;50.814;8.530;2023-06-14T13:24:33;5.10;;;2.38;;
30173;SDS011;16985;50.814;8.530;2023-06-14T13:26:59;4.93;;;1.75;;
30173;SDS011;16985;50.814;8.530;2023-06-14T13:29:25;3.70;;;2.10;;
30173;SDS011;16985;50.814;8.530;2023-06-14T13:31:52;3.53;;;2.50;;
30173;SDS011;16985;50.814;8.530;2023-06-14T13:34:19;2.67;;;1.80;;
30173;SDS011;16985;50.814;8.530;2023-06-14T13:36:45;3.33;;;2.50;;
30173;SDS011;16985;50.814;8.530;2023-06-14T13:39:11;6.57;;;2.28;;
30173;SDS011;16985;50.814;8.530;2023-06-14T13:41:37;2.90;;;2.30;;
30173;SDS011;16985;50.814;8.530;2023-06-14T13:44:03;4.47;;;1.90;;
30173;SDS011;16985;50.814;8.530;2023-06-14T13:46:29;4.03;;;2.10;;
30173;SDS011;16985;50.814;8.530;2023-06-14T13:48:55;4.18;;;1.90;;
30173;SDS011;16985;50.814;8.530;2023-06-14T13:51:23;6.57;;;2.10;;
30173;SDS011;16985;50.814;8.530;2023-06-14T13:53:49;8.75;;;2.15;;
30173;SDS011;16985;50.814;8.530;2023-06-14T13:56:23;3.45;;;2.03;;
30173;SDS011;16985;50.814;8.530;2023-06-14T13:58:49;3.25;;;1.52;;
30173;SDS011;16985;50.814;8.530;2023-06-14T14:01:24;2.03;;;1.70;;
30173;SDS011;16985;50.814;8.530;2023-06-14T14:03:50;4.80;;;1.95;;
30173;SDS011;16985;50.814;8.530;2023-06-14T14:06:16;4.45;;;1.85;;
30173;SDS011;16985;50.814;8.530;2023-06-14T14:08:42;4.28;;;2.15;;
30173;SDS011;16985;50.814;8.530;2023-06-14T14:11:09;4.57;;;2.03;;
30173;SDS011;16985;50.814;8.530;2023-06-14T14:13:35;5.65;;;1.92;;
30173;SDS011;16985;50.814;8.530;2023-06-14T14:16:02;4.10;;;2.28;;
30173;SDS011;16985;50.814;8.530;2023-06-14T14:18:28;5.75;;;2.45;;
30173;SDS011;16985;50.814;8.530;2023-06-14T14:20:54;2.33;;;1.90;;
30173;SDS011;16985;50.814;8.530;2023-06-14T14:23:21;5.72;;;1.75;;
30173;SDS011;16985;50.814;8.530;2023-06-14T14:26:01;2.28;;;1.73;;
30173;SDS011;16985;50.814;8.530;2023-06-14T14:28:29;2.33;;;1.88;;
30173;SDS011;16985;50.814;8.530;2023-06-14T14:30:57;3.08;;;2.42;;
30173;SDS011;16985;50.814;8.530;2023-06-14T14:33:23;5.60;;;2.50;;
30173;SDS011;16985;50.814;8.530;2023-06-14T14:35:49;2.38;;;1.65;;
30173;SDS011;16985;50.814;8.530;2023-06-14T14:38:15;2.00;;;1.70;;
30173;SDS011;16985;50.814;8.530;2023-06-14T14:40:41;2.78;;;2.25;;
30173;SDS011;16985;50.814;8.530;2023-06-14T14:43:22;2.75;;;1.83;;
30173;SDS011;16985;50.814;8.530;2023-06-14T14:45:47;2.30;;;2.10;;
30173;SDS011;16985;50.814;8.530;2023-06-14T14:48:13;6.65;;;1.83;;
30173;SDS011;16985;50.814;8.530;2023-06-14T14:50:39;5.85;;;2.17;;
30173;SDS011;16985;50.814;8.530;2023-06-14T14:53:05;5.05;;;1.85;;
30173;SDS011;16985;50.814;8.530;2023-06-14T14:55:32;8.73;;;2.58;;
30173;SDS011;16985;50.814;8.530;2023-06-14T14:58:00;4.35;;;2.25;;
30173;SDS011;16985;50.814;8.530;2023-06-14T15:00:27;4.45;;;1.95;;
30173;SDS011;16985;50.814;8.530;2023-06-14T15:02:53;3.35;;;1.92;;
30173;SDS011;16985;50.814;8.530;2023-06-14T15:05:19;3.10;;;2.10;;
30173;SDS011;16985;50.814;8.530;2023-06-14T15:08:00;2.38;;;2.00;;
30173;SDS011;16985;50.814;8.530;2023-06-14T15:10:25;2.10;;;1.75;;
30173;SDS011;16985;50.814;8.530;2023-06-14T15:12:51;5.82;;;2.08;;
30173;SDS011;16985;50.814;8.530;2023-06-14T15:15:17;1.88;;;1.73;;
30173;SDS011;16985;50.814;8.530;2023-06-14T15:17:58;3.47;;;2.03;;
30173;SDS011;16985;50.814;8.530;2023-06-14T15:20:25;2.15;;;1.90;;
30173;SDS011;16985;50.814;8.530;2023-06-14T15:22:51;4.05;;;1.90;;
30173;SDS011;16985;50.814;8.530;2023-06-14T15:25:17;1.90;;;1.70;;
30173;SDS011;16985;50.814;8.530;2023-06-14T15:27:44;6.93;;;2.08;;
30173;SDS011;16985;50.814;8.530;2023-06-14T15:30:10;2.78;;;1.92;;